ASN logo
 
Statuts: Information is only available from news, social media or unofficial sources
Date:jeudi 27 janvier 2022
Heure:03:30
Type/Sous-type:Silhouette image of generic CL60 model; specific model in this crash may look slightly different
Bombardier CL-600-2B16 Challenger 604
Compagnie:Volare Aviation
Immatriculation: 2-SLOW
Numéro de série: 5422
Année de Fabrication: 1999
Equipage:victimes: 0 / à bord: 3
Passagers:victimes: 0 / à bord: 4
Total:victimes: 0 / à bord: 7
Dégats de l'appareil: Substantiels
Conséquences: Written off (damaged beyond repair)
Lieu de l'accident:Heraklion-N. Kazantzakis Airport (HER) (   Grèce)
Phase de vol: A l'atterrissage (LDG)
Nature:Affaires
Aéroport de départ:Oxford-Kidlington Airport (OXF/EGTK), Royaume Uni
Aéroport de destination:Heraklion-N. Kazantzakis Airport (HER/LGIR), Grèce
Détails:
The Challenger 604 was landing on runway 27 at Heraklion-N. Kazantzakis Airport (HER), Greece, when the nose landing gear collapsed.

Sources:
» www.in.gr

METAR Weather report:
01:20 UTC / 03:20 local time:
LGIR 270120Z 33016G27KT 9999 -RA FEW012 FEW016TCU BKN025 07/04 Q1022 NOSIG

02:20 UTC / 04:20 local time:
LGIR 270220Z 34011KT 9999 FEW012 FEW016TCU BKN025 08/03 Q1022 NOSIG


Photos

Add your photo of this accident or aircraft

Plan
Ce plan montre l'aéroport de départ ainsi que la supposée destination du vol. La ligne fixe reliant les deux aéroports n'est pas le plan de vol exact.
La distance entre Oxford-Kidlington Airport et Heraklion-N. Kazantzakis Airport est de 2766 km (1729 miles).

Les informations ci-dessus ne représentent pas l'opinion de la 'Flight Safety Foundation' ou de 'Aviation Safety Network' sur les causes de l'accident. Ces informations prélimimaires sont basées sur les faits tel qu'ils sont connus à ce jour.
languages: languages

Share

Canadair Challenger

  • 796+ built
  • 25ème loss
» safety profile

 Grèce
  • le accident 60ème le plus grave (à ce moment là)
  • le accident 61ème le plus grave (en ce moment)
» safety profile

The Aviation Safety Network is an exclusive service provided by:
Quick Links:

CONNECT WITH US: FSF Facebook FSF Twitter FSF Youtube FSF LinkedIn FSF Instagram

©2022 Flight Safety Foundation

701 N. Fairfax St., Ste. 250
Alexandria, Virginia 22314
www.FlightSafety.org